Time;durP1;ratioP1;P1;durP2;ratioP2;P2;SDS_P1;SDS_P2;PMS_P1;PMS_P2;Temp;Humidity;BMP_temperature;BMP_pressure;BME280_temperature;BME280_humidity;BME280_pressure;Samples;Min_cycle;Max_cycle;Signal;HPM_P1;HPM_P2
2021/12/24 00:00:27;;;;;;;4.30;4.10;;;;;;;7.72;100.00;100118.00;4335880;32;21182;-76
2021/12/24 00:02:54;;;;;;;3.70;3.60;;;;;;;7.67;100.00;100112.16;4353960;32;20077;-75
2021/12/24 00:05:20;;;;;;;5.85;5.55;;;;;;;7.64;100.00;100114.06;4336228;32;20135;-75
2021/12/24 00:07:45;;;;;;;3.65;3.55;;;;;;;7.61;100.00;100109.00;4355836;32;20097;-74
2021/12/24 00:10:11;;;;;;;4.20;3.90;;;;;;;7.52;100.00;100094.66;4356916;32;20101;-77
2021/12/24 00:12:40;;;;;;;3.70;3.60;;;;;;;6.47;100.00;99911.03;4343943;32;20065;-74
2021/12/24 00:15:22;;;;;;;3.60;3.50;;;;;;;7.59;100.00;100111.69;4358192;32;20541;-75
2021/12/24 00:17:48;;;;;;;3.70;3.60;;;;;;;7.59;100.00;100117.75;4363987;32;20592;-77
2021/12/24 00:20:58;;;;;;;4.85;4.65;;;;;;;7.54;100.00;100109.31;4358187;32;20090;-76
2021/12/24 00:36:25;;;;;;;5.47;5.28;;;;;;;7.43;100.00;100103.75;4350596;32;20076;-75
2021/12/24 00:38:51;;;;;;;3.47;3.37;;;;;;;7.42;100.00;100094.25;4352373;32;20599;-76
2021/12/24 00:41:16;;;;;;;5.70;5.35;;;;;;;7.36;100.00;100099.78;4350787;32;20332;-74
2021/12/24 00:43:42;;;;;;;4.05;3.85;;;;;;;7.42;100.00;100103.81;4342922;32;20567;-76
2021/12/24 00:46:07;;;;;;;3.80;3.65;;;;;;;7.03;100.00;100063.91;4355659;32;20088;-76
2021/12/24 00:48:32;;;;;;;4.43;4.22;;;;;;;7.37;100.00;100101.44;4355559;32;20399;-73
2021/12/24 00:56:05;;;;;;;4.28;4.07;;;;;;;7.43;100.00;100095.09;4355586;32;20204;-75
2021/12/24 00:58:30;;;;;;;4.40;4.20;;;;;;;7.16;100.00;100061.59;4344606;32;20404;-73
2021/12/24 01:00:56;;;;;;;4.53;4.25;;;;;;;7.41;100.00;100096.94;4336264;32;20077;-75
2021/12/24 01:03:21;;;;;;;4.90;4.70;;;;;;;7.39;100.00;100090.00;4352763;32;20097;-74
2021/12/24 01:05:46;;;;;;;3.85;3.65;;;;;;;7.39;100.00;100092.63;4338271;32;20070;-74
2021/12/24 01:08:12;;;;;;;4.03;3.85;;;;;;;7.46;100.00;100092.34;4356645;32;20151;-76
2021/12/24 01:10:43;;;;;;;3.50;3.40;;;;;;;7.23;100.00;100056.91;4353063;32;20070;-75
2021/12/24 01:13:08;;;;;;;3.60;3.50;;;;;;;6.41;100.00;99913.91;4355121;32;20084;-77
2021/12/24 01:15:37;;;;;;;4.45;4.25;;;;;;;7.44;100.00;100087.19;4340710;32;20062;-74
2021/12/24 01:25:55;;;;;;;3.80;3.70;;;;;;;7.35;100.00;100079.81;4361030;32;20460;-74
2021/12/24 01:39:26;;;;;;;3.70;3.50;;;;;;;7.43;100.00;100085.50;4368061;32;20068;-75
2021/12/24 01:44:36;;;;;;;3.90;3.70;;;;;;;7.38;100.00;100097.94;4368986;32;20076;-73
2021/12/24 01:47:04;;;;;;;4.32;4.12;;;;;;;7.31;100.00;100073.88;4357581;32;20211;-75
2021/12/24 01:49:29;;;;;;;4.10;3.90;;;;;;;7.13;100.00;100035.62;4356900;32;20078;-76
2021/12/24 01:51:55;;;;;;;3.53;3.42;;;;;;;7.48;100.00;100083.50;4349452;32;20076;-72
2021/12/24 01:54:20;;;;;;;7.57;7.18;;;;;;;7.28;100.00;100049.72;4359513;32;20841;-74
2021/12/24 01:56:46;;;;;;;3.78;3.67;;;;;;;7.51;100.00;100078.13;4354963;32;20163;-73
2021/12/24 01:59:11;;;;;;;3.87;3.72;;;;;;;7.54;100.00;100075.38;4350418;32;20172;-76
2021/12/24 02:01:37;;;;;;;4.40;4.10;;;;;;;7.54;100.00;100087.59;4342766;32;20074;-74
2021/12/24 02:04:02;;;;;;;4.10;3.90;;;;;;;7.57;100.00;100083.03;4352090;32;20230;-76
2021/12/24 02:06:27;;;;;;;4.03;3.83;;;;;;;7.58;100.00;100083.91;4342259;32;20352;-76
2021/12/24 02:08:53;;;;;;;4.28;4.07;;;;;;;7.61;100.00;100086.34;4345697;32;20083;-74
2021/12/24 02:11:18;;;;;;;4.95;4.75;;;;;;;7.51;100.00;100072.91;4340431;32;20073;-74
2021/12/24 02:13:44;;;;;;;3.50;3.40;;;;;;;7.61;100.00;100083.72;4368247;32;20084;-75
2021/12/24 02:28:17;;;;;;;3.97;3.78;;;;;;;7.62;100.00;100074.13;4369487;32;20098;-74
2021/12/24 02:29:49;;;;;;;3.75;3.65;;;;;;;7.76;100.00;100069.91;4371500;32;20080;-73
2021/12/24 02:32:14;;;;;;;4.70;4.50;;;;;;;7.82;100.00;100066.16;4352679;32;20070;-76
2021/12/24 02:34:39;;;;;;;3.78;3.60;;;;;;;7.86;100.00;100051.16;4355547;32;20444;-75
2021/12/24 02:37:05;;;;;;;4.15;3.87;;;;;;;7.84;100.00;100043.41;4356688;32;20076;-75
2021/12/24 02:39:30;;;;;;;4.00;3.80;;;;;;;7.83;100.00;100053.94;4352620;32;20537;-76
2021/12/24 02:41:57;;;;;;;4.53;4.22;;;;;;;7.85;100.00;100068.59;4352544;32;20087;-74
2021/12/24 02:44:22;;;;;;;5.70;5.45;;;;;;;7.89;100.00;100041.38;4355537;32;20089;-74
2021/12/24 02:47:11;;;;;;;3.85;3.70;;;;;;;7.85;100.00;100047.69;4356711;32;20076;-74
2021/12/24 02:54:58;;;;;;;3.67;3.55;;;;;;;7.90;100.00;100037.88;4368680;32;20507;-74
2021/12/24 02:57:27;;;;;;;5.12;4.93;;;;;;;7.96;100.00;100036.72;4347453;32;20374;-74
2021/12/24 03:00:07;;;;;;;4.78;4.45;;;;;;;6.98;100.00;99870.28;4366798;32;20420;-74
2021/12/24 03:02:33;;;;;;;4.10;3.90;;;;;;;7.90;100.00;100037.03;4349136;32;20691;-76
2021/12/24 03:04:59;;;;;;;4.12;3.92;;;;;;;7.96;100.00;100039.31;4355308;32;20078;-75
2021/12/24 03:07:24;;;;;;;4.97;4.78;;;;;;;7.82;100.00;100002.59;4350779;32;20069;-74
2021/12/24 03:09:50;;;;;;;3.72;3.60;;;;;;;7.96;100.00;100027.09;4356396;32;20090;-72
2021/12/24 03:12:15;;;;;;;5.95;5.62;;;;;;;7.96;100.00;100039.31;4351803;32;20624;-75
2021/12/24 03:14:40;;;;;;;4.00;3.80;;;;;;;7.98;100.00;100027.03;4357118;32;20497;-74
2021/12/24 03:17:11;;;;;;;3.70;3.60;;;;;;;7.92;100.00;100032.56;4352279;32;20076;-73
2021/12/24 03:19:36;;;;;;;4.35;4.15;;;;;;;7.82;100.00;100029.59;4362518;32;20216;-75
2021/12/24 03:22:27;;;;;;;3.78;3.67;;;;;;;7.84;100.00;100030.34;4359914;32;20106;-74
2021/12/24 03:24:53;;;;;;;3.80;3.60;;;;;;;7.91;100.00;100034.31;4345172;32;20451;-74
2021/12/24 03:27:18;;;;;;;5.10;4.90;;;;;;;7.93;100.00;100029.03;4348966;32;20457;-74
2021/12/24 03:29:43;;;;;;;4.07;3.87;;;;;;;7.91;100.00;100031.69;4352540;32;20074;-74
2021/12/24 03:32:09;;;;;;;3.72;3.62;;;;;;;7.92;100.00;100035.19;4354889;32;20067;-76
2021/12/24 03:34:34;;;;;;;3.60;3.50;;;;;;;7.86;100.00;100032.84;4355801;32;20496;-74
2021/12/24 03:37:00;;;;;;;4.00;3.80;;;;;;;7.83;100.00;100040.87;4338774;32;20073;-74
2021/12/24 03:39:26;;;;;;;5.60;5.30;;;;;;;7.56;100.00;99996.97;4353721;32;20351;-75
2021/12/24 03:41:51;;;;;;;4.10;3.90;;;;;;;7.81;100.00;100032.28;4338354;32;20175;-74
2021/12/24 03:44:18;;;;;;;3.80;3.65;;;;;;;7.81;100.00;100035.72;4354437;32;20167;-75
2021/12/24 03:46:59;;;;;;;4.03;3.83;;;;;;;7.86;100.00;100031.13;4361102;32;20582;-74
2021/12/24 03:53:04;;;;;;;3.60;3.50;;;;;;;7.82;100.00;100020.88;4353838;32;20610;-72
2021/12/24 03:54:58;;;;;;;4.22;3.97;;;;;;;7.83;100.00;100031.25;4367282;32;20082;-73
2021/12/24 03:57:33;;;;;;;5.25;5.05;;;;;;;7.82;100.00;100028.72;4346087;32;20124;-74
2021/12/24 04:00:00;;;;;;;3.67;3.58;;;;;;;7.86;100.00;100028.50;4379398;32;20080;-74
2021/12/24 04:02:26;;;;;;;5.55;5.25;;;;;;;7.68;100.00;100009.41;4345954;32;20073;-75
2021/12/24 04:04:51;;;;;;;3.37;3.28;;;;;;;7.83;100.00;100017.34;4354441;32;20089;-74
2021/12/24 04:07:17;;;;;;;5.18;4.93;;;;;;;7.71;100.00;99998.78;4353971;32;20147;-74
2021/12/24 04:09:49;;;;;;;3.53;3.42;;;;;;;7.54;100.00;99980.53;4355803;32;20081;-76
2021/12/24 04:12:15;;;;;;;5.15;4.95;;;;;;;7.79;100.00;100025.34;4352525;32;20058;-73
2021/12/24 04:14:40;;;;;;;3.42;3.33;;;;;;;7.63;100.00;99993.09;4348948;32;21198;-75
2021/12/24 04:17:07;;;;;;;3.72;3.62;;;;;;;7.84;100.00;100034.72;4349110;32;20074;-73
2021/12/24 04:24:52;;;;;;;3.50;3.40;;;;;;;7.83;100.00;100031.25;4354869;32;20183;-74
2021/12/24 04:27:18;;;;;;;5.22;5.03;;;;;;;7.92;100.00;100035.19;4352541;32;20450;-75
2021/12/24 04:29:44;;;;;;;3.50;3.40;;;;;;;8.00;100.00;100033.00;4349840;32;20417;-74
2021/12/24 04:32:14;;;;;;;4.22;4.03;;;;;;;8.00;100.00;100038.25;4354312;32;20791;-76
2021/12/24 04:34:43;;;;;;;3.60;3.50;;;;;;;7.97;100.00;100041.84;4364452;32;20073;-74
2021/12/24 05:01:33;;;;;;;4.87;4.68;;;;;;;8.09;100.00;100048.19;4356420;32;20080;-74
2021/12/24 05:04:02;;;;;;;4.22;3.90;;;;;;;8.08;100.00;100054.34;4357184;32;20078;-74
2021/12/24 05:06:33;;;;;;;5.32;5.12;;;;;;;8.03;100.00;100050.28;4354349;32;20073;-74
2021/12/24 05:09:06;;;;;;;3.87;3.67;;;;;;;7.81;100.00;100014.81;4360156;32;20567;-74
2021/12/24 05:11:32;;;;;;;3.70;3.60;;;;;;;8.02;100.00;100056.44;4348889;32;20296;-74
2021/12/24 05:13:57;;;;;;;3.65;3.55;;;;;;;7.97;100.00;100054.06;4357027;32;20435;-76
2021/12/24 05:21:50;;;;;;;18.12;17.23;;;;;;;7.73;100.00;100024.81;4282545;32;20415;-77
2021/12/24 05:24:17;;;;;;;5.53;5.32;;;;;;;6.04;100.00;99733.34;4354608;32;20065;-72
2021/12/24 05:26:51;;;;;;;4.00;3.80;;;;;;;8.04;100.00;100057.19;4352983;32;20066;-72
2021/12/24 05:29:16;;;;;;;5.18;4.97;;;;;;;8.11;100.00;100063.81;4351880;32;20565;-76
2021/12/24 05:31:42;;;;;;;4.12;3.92;;;;;;;8.08;100.00;100061.34;4350634;32;20080;-74
2021/12/24 05:34:07;;;;;;;6.25;5.95;;;;;;;8.09;100.00;100063.03;4354952;32;20520;-75
2021/12/24 05:36:33;;;;;;;4.00;3.80;;;;;;;8.08;100.00;100070.03;4353267;32;20074;-74
2021/12/24 05:38:59;;;;;;;4.00;3.80;;;;;;;7.56;100.00;99991.75;4354644;32;20418;-73
2021/12/24 05:41:25;;;;;;;5.20;5.00;;;;;;;7.93;100.00;100042.09;4366875;32;20077;-74
2021/12/24 05:43:50;;;;;;;4.10;3.90;;;;;;;8.05;100.00;100071.97;4357222;32;20096;-74
2021/12/24 05:46:15;;;;;;;5.18;4.97;;;;;;;8.02;100.00;100067.75;4351924;32;20072;-75
2021/12/24 05:48:41;;;;;;;3.87;3.75;;;;;;;8.04;100.00;100070.25;4359495;32;20751;-73
2021/12/24 05:51:06;;;;;;;4.10;3.90;;;;;;;8.11;100.00;100071.63;4357401;32;20469;-76
2021/12/24 05:53:32;;;;;;;3.70;3.60;;;;;;;8.10;100.00;100068.19;4358687;32;20107;-75
2021/12/24 05:55:57;;;;;;;4.28;3.95;;;;;;;8.05;100.00;100066.72;4355071;32;20112;-75
2021/12/24 05:58:23;;;;;;;6.07;5.78;;;;;;;8.06;100.00;100058.81;4349614;32;20455;-76
2021/12/24 06:00:48;;;;;;;3.87;3.70;;;;;;;8.05;100.00;100069.34;4358120;32;20291;-76
2021/12/24 06:03:14;;;;;;;5.15;4.95;;;;;;;8.06;100.00;100073.63;4358481;32;20430;-75
2021/12/24 06:05:39;;;;;;;3.90;3.70;;;;;;;8.03;100.00;100068.59;4359641;32;20081;-77
2021/12/24 06:08:05;;;;;;;4.20;4.00;;;;;;;7.16;100.00;99942.41;4357447;32;20084;-74
2021/12/24 06:10:31;;;;;;;4.53;4.32;;;;;;;8.03;100.00;100077.25;4353193;32;20686;-74
2021/12/24 06:12:57;;;;;;;4.28;4.07;;;;;;;7.94;100.00;100065.53;4353721;32;20073;-73
2021/12/24 06:15:24;;;;;;;5.03;4.82;;;;;;;7.99;100.00;100071.34;4358924;32;20215;-73
2021/12/24 06:17:53;;;;;;;3.87;3.67;;;;;;;7.09;100.00;99922.72;4358754;32;20093;-73
2021/12/24 06:20:18;;;;;;;5.35;5.15;;;;;;;7.90;100.00;100055.31;4364788;32;20073;-76
2021/12/24 06:22:44;;;;;;;3.87;3.67;;;;;;;8.06;100.00;100081.47;4359433;32;20184;-73
2021/12/24 06:25:09;;;;;;;4.07;3.87;;;;;;;7.98;100.00;100077.50;4353238;32;20073;-75
2021/12/24 06:27:35;;;;;;;4.10;3.85;;;;;;;8.01;100.00;100078.28;4352392;32;20066;-73
2021/12/24 06:30:02;;;;;;;4.00;3.80;;;;;;;8.05;100.00;100070.19;4354884;32;20575;-75
2021/12/24 06:32:27;;;;;;;3.95;3.80;;;;;;;7.98;100.00;100071.44;4354287;32;20554;-74
2021/12/24 06:34:53;;;;;;;3.78;3.67;;;;;;;8.01;100.00;100083.50;4361579;32;20080;-73
2021/12/24 06:37:18;;;;;;;5.55;5.25;;;;;;;7.06;100.00;99930.72;4353401;32;20128;-75
2021/12/24 06:39:43;;;;;;;4.00;3.80;;;;;;;7.90;100.00;100068.38;4365609;32;20674;-75
2021/12/24 06:42:09;;;;;;;3.62;3.53;;;;;;;8.03;100.00;100085.09;4356577;32;20071;-77
2021/12/24 06:44:34;;;;;;;3.60;3.50;;;;;;;7.96;100.00;100071.50;4353886;32;20498;-75
2021/12/24 06:47:00;;;;;;;3.55;3.45;;;;;;;7.98;100.00;100077.50;4372722;32;20490;-73
2021/12/24 06:49:25;;;;;;;12.57;5.55;;;;;;;7.96;100.00;100075.91;4353032;32;20096;-77
2021/12/24 06:51:50;;;;;;;3.83;3.72;;;;;;;7.97;100.00;100075.81;4361951;32;20083;-74
2021/12/24 06:54:17;;;;;;;5.10;4.90;;;;;;;8.02;100.00;100072.97;4357086;32;20078;-75
2021/12/24 06:56:43;;;;;;;4.00;3.80;;;;;;;7.98;100.00;100061.81;4357674;32;20092;-74
2021/12/24 06:59:09;;;;;;;5.00;4.80;;;;;;;7.97;100.00;100070.56;4353669;32;20070;-78
2021/12/24 07:01:34;;;;;;;4.85;4.65;;;;;;;7.97;100.00;100074.97;4361172;32;20184;-76
2021/12/24 07:03:59;;;;;;;4.37;4.15;;;;;;;7.04;100.00;99921.31;4357406;32;20066;-74
2021/12/24 07:06:25;;;;;;;5.30;5.10;;;;;;;7.95;100.00;100076.81;4356524;32;20065;-75
2021/12/24 07:08:51;;;;;;;3.72;3.60;;;;;;;7.95;100.00;100082.88;4363221;32;20284;-75
2021/12/24 07:11:16;;;;;;;5.40;5.10;;;;;;;7.96;100.00;100083.75;4348426;32;20585;-76
2021/12/24 07:13:41;;;;;;;3.60;3.50;;;;;;;7.93;100.00;100087.34;4358062;32;20078;-74
2021/12/24 07:16:07;;;;;;;4.10;3.90;;;;;;;7.92;100.00;100083.06;4352428;32;20088;-73
2021/12/24 07:18:32;;;;;;;3.60;3.50;;;;;;;7.98;100.00;100092.34;4352490;32;20553;-75
2021/12/24 07:20:57;;;;;;;4.15;3.95;;;;;;;8.00;100.00;100095.72;4358930;32;20623;-75
2021/12/24 07:23:23;;;;;;;5.28;5.07;;;;;;;7.96;100.00;100105.47;4365721;32;20280;-76
2021/12/24 07:25:48;;;;;;;3.60;3.50;;;;;;;7.87;100.00;100084.19;4356185;32;20877;-75
2021/12/24 07:28:14;;;;;;;6.10;5.80;;;;;;;7.96;100.00;100089.81;4348601;32;20172;-75
2021/12/24 07:30:39;;;;;;;3.70;3.60;;;;;;;7.96;100.00;100092.41;4351303;32;20160;-75
2021/12/24 07:33:04;;;;;;;4.20;4.00;;;;;;;7.96;100.00;100083.75;4360902;32;20436;-75
2021/12/24 07:35:30;;;;;;;4.28;4.07;;;;;;;7.96;100.00;100100.25;4332768;32;20078;-75
2021/12/24 07:37:55;;;;;;;4.20;4.00;;;;;;;8.00;100.00;100093.12;4356747;32;20085;-75
2021/12/24 07:40:23;;;;;;;5.47;5.28;;;;;;;7.97;100.00;100090.63;4353898;32;20070;-75
2021/12/24 07:42:48;;;;;;;4.37;4.18;;;;;;;7.98;100.00;100098.41;4353101;32;20647;-74
2021/12/24 07:45:14;;;;;;;5.10;4.90;;;;;;;7.99;100.00;100099.25;4350759;32;20442;-73
2021/12/24 07:47:43;;;;;;;4.03;3.83;;;;;;;7.98;100.00;100100.19;4359968;32;20127;-74
2021/12/24 07:52:53;;;;;;;3.67;3.58;;;;;;;7.88;100.00;100112.03;4356063;32;20069;-75
2021/12/24 07:55:19;;;;;;;6.12;5.72;;;;;;;7.92;100.00;100114.41;4346756;32;20272;-75
2021/12/24 07:57:46;;;;;;;3.70;3.60;;;;;;;7.95;100.00;100103.78;4353703;32;20304;-73
2021/12/24 08:00:12;;;;;;;6.15;5.90;;;;;;;7.85;100.00;100092.09;4352490;32;20580;-76
2021/12/24 08:02:37;;;;;;;4.05;3.85;;;;;;;6.91;100.00;99947.97;4351910;32;20062;-73
2021/12/24 08:05:03;;;;;;;4.82;4.57;;;;;;;7.94;100.00;100103.88;4358523;32;20131;-74
2021/12/24 08:07:28;;;;;;;4.10;3.90;;;;;;;7.93;100.00;100105.63;4337508;32;20264;-74
2021/12/24 08:09:54;;;;;;;3.70;3.60;;;;;;;7.96;100.00;100102.88;4352257;32;20595;-74
2021/12/24 08:12:20;;;;;;;4.12;3.92;;;;;;;7.40;100.00;100025.62;4354186;32;20062;-76
2021/12/24 08:14:45;;;;;;;3.67;3.58;;;;;;;7.96;100.00;100102.03;4355180;32;20080;-74
2021/12/24 08:17:11;;;;;;;4.35;4.15;;;;;;;7.17;100.00;99996.25;4354598;32;20070;-74
2021/12/24 08:19:37;;;;;;;4.72;4.25;;;;;;;7.94;100.00;100102.09;4343029;32;20084;-73
2021/12/24 08:22:02;;;;;;;4.10;3.90;;;;;;;7.96;100.00;100102.03;4347654;32;20530;-74
2021/12/24 08:24:28;;;;;;;4.65;4.45;;;;;;;7.97;100.00;100093.25;4344848;32;20473;-73
2021/12/24 08:26:53;;;;;;;4.10;3.90;;;;;;;7.79;100.00;100074.97;4347144;32;20085;-74
2021/12/24 08:29:21;;;;;;;5.90;5.50;;;;;;;7.61;100.00;100035.91;4349266;32;20236;-74
2021/12/24 08:31:47;;;;;;;3.85;3.72;;;;;;;7.90;100.00;100089.28;4355174;32;20093;-74
2021/12/24 08:34:12;;;;;;;4.95;4.75;;;;;;;7.94;100.00;100089.03;4354046;32;20078;-73
2021/12/24 08:36:37;;;;;;;4.35;4.10;;;;;;;7.93;100.00;100084.72;4349843;32;20595;-73
2021/12/24 08:39:03;;;;;;;4.00;3.80;;;;;;;7.06;100.00;99941.16;4357990;32;20521;-73
2021/12/24 08:41:28;;;;;;;6.57;6.28;;;;;;;7.99;100.00;100081.78;4335159;32;20539;-74
2021/12/24 08:43:54;;;;;;;4.20;4.00;;;;;;;7.96;100.00;100089.81;4355104;32;20069;-74
2021/12/24 08:46:19;;;;;;;5.20;5.00;;;;;;;7.73;100.00;100056.16;4354262;32;20527;-75
2021/12/24 08:48:45;;;;;;;4.12;3.92;;;;;;;7.86;100.00;100070.31;4347886;32;20077;-75
2021/12/24 08:51:11;;;;;;;3.72;3.62;;;;;;;7.92;100.00;100090.03;4352541;32;20333;-74
2021/12/24 08:53:37;;;;;;;4.60;4.40;;;;;;;7.90;100.00;100081.44;4350362;32;20105;-74
2021/12/24 08:56:02;;;;;;;3.70;3.60;;;;;;;7.82;100.00;100055.72;4362715;32;20077;-74
2021/12/24 08:58:28;;;;;;;5.45;5.05;;;;;;;7.92;100.00;100061.31;4333879;32;20059;-75
2021/12/24 09:00:53;;;;;;;3.65;3.55;;;;;;;7.83;100.00;100033.03;4346393;32;20132;-75
2021/12/24 09:03:19;;;;;;;5.03;4.82;;;;;;;8.04;100.00;100055.44;4356242;32;20536;-76
2021/12/24 09:05:45;;;;;;;4.12;3.92;;;;;;;8.06;100.00;100056.22;4349361;32;20089;-75
2021/12/24 09:08:10;;;;;;;5.30;5.05;;;;;;;8.11;100.00;100042.91;4355268;32;20419;-76
2021/12/24 09:10:36;;;;;;;9.18;5.15;;;;;;;8.12;100.00;100044.59;4342038;32;20071;-74
2021/12/24 09:13:01;;;;;;;3.70;3.60;;;;;;;7.99;100.00;100034.75;4348757;32;20070;-75
2021/12/24 09:15:29;;;;;;;4.00;3.85;;;;;;;8.03;100.00;100026.78;4355021;32;20066;-74
2021/12/24 09:17:56;;;;;;;3.62;3.53;;;;;;;8.12;100.00;100045.44;4354196;32;20080;-75
2021/12/24 09:20:27;;;;;;;5.82;5.53;;;;;;;8.24;100.00;100067.47;4346841;32;20787;-75
2021/12/24 09:22:54;;;;;;;3.70;3.60;;;;;;;7.48;100.00;99936.47;4351329;32;20176;-76
2021/12/24 09:25:22;;;;;;;5.53;5.22;;;;;;;8.31;100.00;100060.97;4345683;32;20096;-75
2021/12/24 09:27:47;;;;;;;4.20;4.00;;;;;;;8.36;100.00;100058.97;4337625;32;20109;-75
2021/12/24 09:30:12;;;;;;;4.72;4.50;;;;;;;8.37;100.00;100046.75;4349400;32;20738;-74
2021/12/24 09:32:38;;;;;;;4.30;4.10;;;;;;;8.44;100.00;100042.03;4353632;32;20109;-75
2021/12/24 09:35:04;;;;;;;4.07;3.87;;;;;;;8.32;100.00;100022.63;4336581;32;20096;-76
2021/12/24 09:37:29;;;;;;;4.30;4.10;;;;;;;8.39;100.00;100037.88;4337930;32;20659;-74
2021/12/24 09:39:55;;;;;;;4.20;4.00;;;;;;;8.23;100.00;100021.34;4358233;32;20956;-74
2021/12/24 09:42:20;;;;;;;5.78;5.47;;;;;;;8.27;100.00;100032.47;4367039;32;20196;-74
2021/12/24 09:44:45;;;;;;;3.90;3.78;;;;;;;8.27;100.00;100035.94;4354724;32;20095;-74
2021/12/24 09:47:11;;;;;;;3.87;3.75;;;;;;;8.32;99.98;100036.53;4346191;32;20104;-74
2021/12/24 09:49:36;;;;;;;4.10;3.90;;;;;;;8.33;99.69;100032.97;4349531;32;20292;-75
2021/12/24 09:52:02;;;;;;;4.40;4.20;;;;;;;8.17;99.53;100014.66;4358056;32;20085;-74
2021/12/24 09:54:28;;;;;;;6.45;6.03;;;;;;;8.37;99.44;100033.66;4354511;32;20243;-75
2021/12/24 09:56:54;;;;;;;4.35;4.15;;;;;;;7.94;98.83;99960.19;4359171;32;20575;-75
2021/12/24 09:59:19;;;;;;;5.93;5.65;;;;;;;8.46;99.66;100034.97;4350340;32;20529;-75
2021/12/24 10:01:54;;;;;;;4.05;3.85;;;;;;;8.50;99.39;100039.97;4359646;32;20064;-74
2021/12/24 10:04:19;;;;;;;5.47;5.28;;;;;;;8.57;98.97;100038.69;4359213;32;20104;-75
2021/12/24 10:06:50;;;;;;;4.15;3.95;;;;;;;8.55;98.29;100027.47;4347132;32;20548;-75
2021/12/24 10:09:16;;;;;;;5.50;5.25;;;;;;;8.64;96.69;100028.75;4351987;32;20124;-76
2021/12/24 10:11:55;;;;;;;4.50;4.25;;;;;;;7.64;97.24;99869.47;4356596;32;20073;-77
2021/12/24 10:14:21;;;;;;;5.82;5.57;;;;;;;8.73;97.25;100046.53;4342125;32;20630;-77
2021/12/24 10:16:48;;;;;;;4.75;4.50;;;;;;;8.68;96.36;100034.63;4353221;32;20343;-78
2021/12/24 10:19:14;;;;;;;5.05;4.85;;;;;;;8.64;96.38;100028.75;4348864;32;20093;-75
2021/12/24 10:21:40;;;;;;;5.07;4.78;;;;;;;8.68;96.33;100032.88;4339722;32;20647;-73
2021/12/24 10:24:08;;;;;;;4.00;3.80;;;;;;;8.66;96.16;100036.50;4339073;32;20175;-74
2021/12/24 10:26:44;;;;;;;4.07;3.87;;;;;;;8.30;95.38;99977.41;4370295;32;20701;-75
2021/12/24 10:29:11;;;;;;;4.15;3.95;;;;;;;8.66;96.67;100034.75;4359327;32;20148;-74
2021/12/24 10:31:40;;;;;;;4.55;4.35;;;;;;;8.39;95.65;99997.81;4347065;32;20100;-74
2021/12/24 10:34:27;;;;;;;4.05;3.85;;;;;;;8.66;96.00;100028.66;4360144;32;20223;-74
2021/12/24 10:37:01;;;;;;;3.80;3.70;;;;;;;8.70;96.32;100046.72;4378531;32;20087;-74
2021/12/24 10:39:36;;;;;;;5.35;5.15;;;;;;;8.57;96.21;100016.94;4351165;32;20069;-74
2021/12/24 10:42:04;;;;;;;4.10;3.90;;;;;;;8.68;96.44;100034.63;4374765;32;20081;-74
2021/12/24 10:44:31;;;;;;;5.22;5.03;;;;;;;8.67;95.79;100039.03;4351241;32;20065;-73
2021/12/24 10:47:05;;;;;;;4.20;4.00;;;;;;;8.73;96.28;100036.06;4354050;32;20134;-73
2021/12/24 10:49:49;;;;;;;4.00;3.80;;;;;;;8.70;95.85;100028.41;4359299;32;20143;-73
2021/12/24 10:54:56;;;;;;;4.05;3.85;;;;;;;8.83;95.73;100032.97;4358520;32;20074;-75
2021/12/24 10:57:25;;;;;;;5.35;5.15;;;;;;;8.89;95.83;100024.78;4364835;32;20076;-74
2021/12/24 10:59:54;;;;;;;4.10;3.90;;;;;;;8.94;94.36;100020.97;4353932;32;20084;-73
2021/12/24 11:02:19;;;;;;;6.37;6.03;;;;;;;8.92;94.50;100024.59;4352599;32;20188;-75
2021/12/24 11:04:44;;;;;;;4.50;4.30;;;;;;;9.00;93.95;100019.78;4334678;32;20084;-73
2021/12/24 11:07:33;;;;;;;4.45;4.25;;;;;;;9.10;93.73;100031.41;4352720;32;20093;-75
2021/12/24 11:10:19;;;;;;;4.60;4.40;;;;;;;9.13;93.75;100030.41;4369826;32;20074;-73
2021/12/24 11:12:59;;;;;;;3.87;3.72;;;;;;;9.15;92.97;100031.97;4364744;32;20066;-75
2021/12/24 11:15:24;;;;;;;6.40;6.10;;;;;;;9.15;92.62;100033.78;4357456;32;20088;-75
2021/12/24 11:17:51;;;;;;;4.78;4.57;;;;;;;9.17;92.45;100039.75;4366093;32;20228;-74
2021/12/24 11:20:16;;;;;;;5.15;4.93;;;;;;;9.28;92.09;100036.50;4342379;32;20176;-75
2021/12/24 11:23:00;;;;;;;4.50;4.30;;;;;;;9.24;91.05;100042.84;4351862;32;20077;-73
2021/12/24 11:25:28;;;;;;;5.90;5.43;;;;;;;9.15;92.33;100039.84;4348212;32;20172;-73
2021/12/24 11:27:53;;;;;;;4.90;4.70;;;;;;;8.99;92.81;100010.22;4350983;32;20081;-73
2021/12/24 11:30:19;;;;;;;5.43;5.12;;;;;;;9.08;92.29;100027.19;4350774;32;20513;-72
2021/12/24 11:32:45;;;;;;;4.90;4.60;;;;;;;9.12;93.53;100041.78;4354644;32;20516;-73
2021/12/24 11:35:12;;;;;;;5.07;4.80;;;;;;;9.03;93.34;100030.06;4352122;32;20092;-71
2021/12/24 11:37:38;;;;;;;4.40;4.20;;;;;;;9.16;92.80;100024.97;4353221;32;20327;-73
2021/12/24 11:40:04;;;;;;;5.18;4.87;;;;;;;9.27;93.46;100034.84;4354014;32;20093;-73
2021/12/24 11:42:32;;;;;;;5.25;5.05;;;;;;;9.28;92.23;100023.41;4353664;32;20170;-73
2021/12/24 11:44:57;;;;;;;5.00;4.72;;;;;;;9.35;91.86;100020.37;4357297;32;20154;-72
2021/12/24 11:47:23;;;;;;;4.62;4.43;;;;;;;8.25;91.41;99820.81;4353826;32;20675;-73
2021/12/24 11:49:48;;;;;;;5.22;4.93;;;;;;;9.37;91.92;100001.94;4352355;32;20078;-72
2021/12/24 11:52:13;;;;;;;5.53;5.07;;;;;;;9.45;91.94;100017.22;4341429;32;20152;-73
2021/12/24 11:54:39;;;;;;;4.20;4.00;;;;;;;9.43;91.63;99998.12;4352118;32;20465;-73
2021/12/24 11:57:15;;;;;;;4.45;4.25;;;;;;;9.46;91.02;99995.31;4345840;32;20190;-74
2021/12/24 11:59:41;;;;;;;4.22;4.03;;;;;;;9.36;90.98;99976.69;4351392;32;20092;-72
2021/12/24 12:02:07;;;;;;;4.43;4.22;;;;;;;9.39;91.25;100000.09;4347796;32;20073;-72
2021/12/24 12:04:32;;;;;;;5.72;5.43;;;;;;;9.29;91.35;99978.00;4350061;32;20124;-76
2021/12/24 12:07:16;;;;;;;4.87;4.57;;;;;;;8.35;91.00;99848.13;4348203;32;20124;-74
2021/12/24 12:09:42;;;;;;;4.75;4.45;;;;;;;8.84;90.62;99906.44;4354305;32;20274;-74
2021/12/24 12:12:09;;;;;;;4.18;3.97;;;;;;;9.06;90.94;99955.75;4351624;32;20555;-74
2021/12/24 12:14:37;;;;;;;4.43;4.22;;;;;;;9.30;91.68;99985.78;4349378;32;21421;-74
2021/12/24 12:17:06;;;;;;;4.15;3.95;;;;;;;9.34;91.69;99983.78;4337083;32;20093;-73
2021/12/24 12:19:43;;;;;;;4.30;4.10;;;;;;;9.26;91.35;99983.41;4355080;32;20147;-73
2021/12/24 12:22:46;;;;;;;4.12;3.92;;;;;;;9.29;91.42;99998.94;4345877;32;20344;-74
2021/12/24 12:25:34;;;;;;;4.18;3.97;;;;;;;9.19;92.26;99989.00;4356310;32;20088;-72
2021/12/24 12:28:01;;;;;;;4.40;4.20;;;;;;;9.21;92.20;99995.94;4349637;32;20610;-73
2021/12/24 12:30:37;;;;;;;7.03;6.53;;;;;;;9.30;91.98;100000.63;4348820;32;20386;-73
2021/12/24 12:33:32;;;;;;;3.78;3.67;;;;;;;9.25;92.57;99995.66;4366124;32;20091;-73
2021/12/24 12:35:59;;;;;;;4.00;3.80;;;;;;;9.32;92.50;99996.13;4345288;32;20452;-72
2021/12/24 12:38:28;;;;;;;5.68;5.47;;;;;;;9.38;91.63;99990.53;4347798;32;20100;-73
2021/12/24 12:40:54;;;;;;;3.85;3.75;;;;;;;9.44;91.74;99992.81;4367432;32;20084;-74
2021/12/24 12:43:20;;;;;;;5.87;5.57;;;;;;;9.44;90.56;99990.19;4354175;32;20176;-73
2021/12/24 12:45:47;;;;;;;4.22;4.03;;;;;;;9.47;90.62;99997.84;4344406;32;20062;-74
2021/12/24 12:48:23;;;;;;;4.47;4.28;;;;;;;9.51;90.13;99991.50;4364281;32;20665;-74
2021/12/24 12:50:57;;;;;;;4.10;3.90;;;;;;;9.27;90.05;99951.91;4343795;32;20073;-74
2021/12/24 12:53:26;;;;;;;4.43;4.22;;;;;;;9.41;89.80;99992.16;4358086;32;20646;-74
2021/12/24 12:56:10;;;;;;;4.00;3.80;;;;;;;9.41;90.23;100000.84;4367761;32;20173;-75
2021/12/24 12:58:35;;;;;;;3.78;3.67;;;;;;;9.25;89.95;99987.78;4365027;32;20065;-73
2021/12/24 13:01:05;;;;;;;3.85;3.75;;;;;;;8.53;89.75;99838.41;4354979;32;20120;-73
2021/12/24 13:03:31;;;;;;;4.00;3.80;;;;;;;9.31;89.20;99965.66;4338707;32;20078;-73
2021/12/24 13:05:59;;;;;;;3.95;3.78;;;;;;;9.49;89.06;99975.03;4357374;32;20058;-74
2021/12/24 13:08:29;;;;;;;4.35;4.15;;;;;;;9.27;88.19;99937.97;4345138;32;20574;-75
2021/12/24 13:11:03;;;;;;;4.10;3.90;;;;;;;9.38;88.79;99962.59;4351295;32;20228;-74